sensor_id;sensor_type;location;lat;lon;timestamp;P1;durP1;ratioP1;P2;durP2;ratioP2
15958;SDS011;8078;47.822;9.402;2023-11-19T00:01:48;857.40;;;77.80;;
15958;SDS011;8078;47.822;9.402;2023-11-19T00:04:14;879.33;;;75.43;;
15958;SDS011;8078;47.822;9.402;2023-11-19T00:06:39;928.43;;;88.07;;
15958;SDS011;8078;47.822;9.402;2023-11-19T00:09:05;993.90;;;85.97;;
15958;SDS011;8078;47.822;9.402;2023-11-19T00:11:33;1022.57;;;93.23;;
15958;SDS011;8078;47.822;9.402;2023-11-19T00:13:58;967.20;;;83.93;;
15958;SDS011;8078;47.822;9.402;2023-11-19T00:16:24;1153.13;;;102.77;;
15958;SDS011;8078;47.822;9.402;2023-11-19T00:18:49;953.77;;;89.40;;
15958;SDS011;8078;47.822;9.402;2023-11-19T00:21:15;991.97;;;93.03;;
15958;SDS011;8078;47.822;9.402;2023-11-19T00:23:41;897.07;;;82.77;;
15958;SDS011;8078;47.822;9.402;2023-11-19T00:26:06;1288.93;;;128.57;;
15958;SDS011;8078;47.822;9.402;2023-11-19T00:28:32;1111.47;;;107.40;;
15958;SDS011;8078;47.822;9.402;2023-11-19T00:30:59;1016.67;;;90.47;;
15958;SDS011;8078;47.822;9.402;2023-11-19T00:33:24;1021.27;;;92.83;;
15958;SDS011;8078;47.822;9.402;2023-11-19T00:35:50;1025.97;;;97.37;;
15958;SDS011;8078;47.822;9.402;2023-11-19T00:38:15;1081.10;;;95.23;;
15958;SDS011;8078;47.822;9.402;2023-11-19T00:40:41;839.43;;;77.27;;
15958;SDS011;8078;47.822;9.402;2023-11-19T00:43:07;913.40;;;83.50;;
15958;SDS011;8078;47.822;9.402;2023-11-19T00:45:32;725.07;;;62.13;;
15958;SDS011;8078;47.822;9.402;2023-11-19T00:47:58;845.83;;;71.27;;
15958;SDS011;8078;47.822;9.402;2023-11-19T00:50:24;774.87;;;69.13;;
15958;SDS011;8078;47.822;9.402;2023-11-19T00:52:50;984.20;;;82.30;;
15958;SDS011;8078;47.822;9.402;2023-11-19T00:55:16;888.17;;;69.17;;
15958;SDS011;8078;47.822;9.402;2023-11-19T00:57:42;757.50;;;67.60;;
15958;SDS011;8078;47.822;9.402;2023-11-19T01:00:08;984.80;;;79.00;;
15958;SDS011;8078;47.822;9.402;2023-11-19T01:02:44;1022.70;;;89.70;;
15958;SDS011;8078;47.822;9.402;2023-11-19T01:05:10;929.07;;;78.17;;
15958;SDS011;8078;47.822;9.402;2023-11-19T01:07:39;861.17;;;68.10;;
15958;SDS011;8078;47.822;9.402;2023-11-19T01:10:05;801.53;;;71.37;;
15958;SDS011;8078;47.822;9.402;2023-11-19T01:12:32;922.70;;;79.37;;
15958;SDS011;8078;47.822;9.402;2023-11-19T01:14:57;719.53;;;72.60;;
15958;SDS011;8078;47.822;9.402;2023-11-19T01:17:23;715.67;;;73.10;;
15958;SDS011;8078;47.822;9.402;2023-11-19T01:19:48;694.83;;;58.77;;
15958;SDS011;8078;47.822;9.402;2023-11-19T01:22:15;872.47;;;75.30;;
15958;SDS011;8078;47.822;9.402;2023-11-19T01:24:40;1030.70;;;98.27;;
15958;SDS011;8078;47.822;9.402;2023-11-19T01:27:06;978.10;;;95.83;;
15958;SDS011;8078;47.822;9.402;2023-11-19T01:29:32;801.40;;;84.00;;
15958;SDS011;8078;47.822;9.402;2023-11-19T01:31:58;1095.60;;;105.20;;
15958;SDS011;8078;47.822;9.402;2023-11-19T01:34:23;1125.23;;;117.27;;
15958;SDS011;8078;47.822;9.402;2023-11-19T01:36:49;743.90;;;76.03;;
15958;SDS011;8078;47.822;9.402;2023-11-19T01:39:15;745.90;;;76.17;;
15958;SDS011;8078;47.822;9.402;2023-11-19T01:41:45;971.03;;;88.77;;
15958;SDS011;8078;47.822;9.402;2023-11-19T01:44:10;1114.23;;;109.10;;
15958;SDS011;8078;47.822;9.402;2023-11-19T01:46:40;1112.17;;;102.70;;
15958;SDS011;8078;47.822;9.402;2023-11-19T01:49:06;1158.97;;;98.87;;
15958;SDS011;8078;47.822;9.402;2023-11-19T01:51:33;793.70;;;64.57;;
15958;SDS011;8078;47.822;9.402;2023-11-19T01:53:59;912.10;;;76.83;;
15958;SDS011;8078;47.822;9.402;2023-11-19T01:56:26;782.80;;;60.60;;
15958;SDS011;8078;47.822;9.402;2023-11-19T01:58:53;887.93;;;70.10;;
15958;SDS011;8078;47.822;9.402;2023-11-19T02:01:19;681.83;;;50.23;;
15958;SDS011;8078;47.822;9.402;2023-11-19T02:03:45;553.57;;;52.10;;
15958;SDS011;8078;47.822;9.402;2023-11-19T02:06:12;792.63;;;69.40;;
15958;SDS011;8078;47.822;9.402;2023-11-19T02:08:38;87.27;;;27.20;;
15958;SDS011;8078;47.822;9.402;2023-11-19T02:11:04;475.50;;;46.10;;
15958;SDS011;8078;47.822;9.402;2023-11-19T02:13:31;227.73;;;39.53;;
15958;SDS011;8078;47.822;9.402;2023-11-19T02:15:57;235.87;;;45.23;;
15958;SDS011;8078;47.822;9.402;2023-11-19T02:18:25;257.93;;;42.73;;
15958;SDS011;8078;47.822;9.402;2023-11-19T02:20:57;70.20;;;32.37;;
15958;SDS011;8078;47.822;9.402;2023-11-19T02:23:25;238.73;;;36.83;;
15958;SDS011;8078;47.822;9.402;2023-11-19T02:26:00;30.53;;;19.67;;
15958;SDS011;8078;47.822;9.402;2023-11-19T02:28:36;31.00;;;20.00;;
15958;SDS011;8078;47.822;9.402;2023-11-19T02:31:02;27.83;;;16.97;;
15958;SDS011;8078;47.822;9.402;2023-11-19T02:33:30;28.73;;;17.37;;
15958;SDS011;8078;47.822;9.402;2023-11-19T02:35:55;24.73;;;16.43;;
15958;SDS011;8078;47.822;9.402;2023-11-19T02:38:21;20.60;;;16.37;;
15958;SDS011;8078;47.822;9.402;2023-11-19T02:40:47;27.60;;;17.87;;
15958;SDS011;8078;47.822;9.402;2023-11-19T02:43:12;23.17;;;18.67;;
15958;SDS011;8078;47.822;9.402;2023-11-19T02:45:38;23.03;;;16.83;;
15958;SDS011;8078;47.822;9.402;2023-11-19T02:48:04;29.60;;;17.33;;
15958;SDS011;8078;47.822;9.402;2023-11-19T02:50:31;25.30;;;18.90;;
15958;SDS011;8078;47.822;9.402;2023-11-19T02:52:57;23.27;;;16.67;;
15958;SDS011;8078;47.822;9.402;2023-11-19T02:55:23;30.17;;;17.57;;
15958;SDS011;8078;47.822;9.402;2023-11-19T02:57:49;21.60;;;14.60;;
15958;SDS011;8078;47.822;9.402;2023-11-19T03:00:22;26.93;;;15.37;;
15958;SDS011;8078;47.822;9.402;2023-11-19T03:03:12;24.03;;;16.73;;
15958;SDS011;8078;47.822;9.402;2023-11-19T03:05:47;20.70;;;16.43;;
15958;SDS011;8078;47.822;9.402;2023-11-19T03:08:13;25.07;;;19.77;;
15958;SDS011;8078;47.822;9.402;2023-11-19T03:10:39;28.47;;;21.00;;
15958;SDS011;8078;47.822;9.402;2023-11-19T03:13:05;77.03;;;24.73;;
15958;SDS011;8078;47.822;9.402;2023-11-19T03:15:35;28.10;;;19.37;;
15958;SDS011;8078;47.822;9.402;2023-11-19T03:18:01;25.97;;;19.67;;
15958;SDS011;8078;47.822;9.402;2023-11-19T03:20:26;25.30;;;18.47;;
15958;SDS011;8078;47.822;9.402;2023-11-19T03:22:54;28.07;;;19.17;;
15958;SDS011;8078;47.822;9.402;2023-11-19T03:25:19;38.20;;;23.93;;
15958;SDS011;8078;47.822;9.402;2023-11-19T03:27:45;31.40;;;22.57;;
15958;SDS011;8078;47.822;9.402;2023-11-19T03:30:11;23.57;;;18.00;;
15958;SDS011;8078;47.822;9.402;2023-11-19T03:32:36;24.67;;;19.07;;
15958;SDS011;8078;47.822;9.402;2023-11-19T03:35:04;25.03;;;18.60;;
15958;SDS011;8078;47.822;9.402;2023-11-19T03:37:32;32.80;;;20.90;;
15958;SDS011;8078;47.822;9.402;2023-11-19T03:39:57;32.43;;;18.10;;
15958;SDS011;8078;47.822;9.402;2023-11-19T03:42:28;30.73;;;20.47;;
15958;SDS011;8078;47.822;9.402;2023-11-19T03:44:55;37.60;;;20.73;;
15958;SDS011;8078;47.822;9.402;2023-11-19T03:47:21;77.53;;;22.40;;
15958;SDS011;8078;47.822;9.402;2023-11-19T03:49:47;125.53;;;32.67;;
15958;SDS011;8078;47.822;9.402;2023-11-19T03:52:19;238.83;;;31.03;;
15958;SDS011;8078;47.822;9.402;2023-11-19T03:54:45;111.77;;;28.17;;
15958;SDS011;8078;47.822;9.402;2023-11-19T03:57:11;1018.37;;;98.53;;
15958;SDS011;8078;47.822;9.402;2023-11-19T03:59:37;98.20;;;27.37;;
15958;SDS011;8078;47.822;9.402;2023-11-19T04:02:03;114.57;;;30.33;;
15958;SDS011;8078;47.822;9.402;2023-11-19T04:04:29;263.00;;;44.37;;
15958;SDS011;8078;47.822;9.402;2023-11-19T04:06:54;688.47;;;79.50;;
15958;SDS011;8078;47.822;9.402;2023-11-19T04:09:20;818.27;;;89.13;;
15958;SDS011;8078;47.822;9.402;2023-11-19T04:11:46;1237.20;;;119.20;;
15958;SDS011;8078;47.822;9.402;2023-11-19T04:14:12;1003.00;;;104.17;;
15958;SDS011;8078;47.822;9.402;2023-11-19T04:16:39;817.10;;;90.37;;
15958;SDS011;8078;47.822;9.402;2023-11-19T04:19:04;1057.90;;;107.37;;
15958;SDS011;8078;47.822;9.402;2023-11-19T04:21:30;1225.10;;;123.40;;
15958;SDS011;8078;47.822;9.402;2023-11-19T04:23:56;1344.07;;;128.83;;
15958;SDS011;8078;47.822;9.402;2023-11-19T04:26:21;1300.57;;;118.43;;
15958;SDS011;8078;47.822;9.402;2023-11-19T04:28:47;1124.53;;;93.10;;
15958;SDS011;8078;47.822;9.402;2023-11-19T04:31:14;1267.57;;;110.33;;
15958;SDS011;8078;47.822;9.402;2023-11-19T04:33:41;1242.63;;;108.07;;
15958;SDS011;8078;47.822;9.402;2023-11-19T04:36:07;1120.00;;;96.63;;
15958;SDS011;8078;47.822;9.402;2023-11-19T04:38:33;1061.10;;;81.57;;
15958;SDS011;8078;47.822;9.402;2023-11-19T04:40:59;1089.90;;;87.50;;
15958;SDS011;8078;47.822;9.402;2023-11-19T04:43:25;953.97;;;71.83;;
15958;SDS011;8078;47.822;9.402;2023-11-19T04:45:50;745.17;;;53.67;;
15958;SDS011;8078;47.822;9.402;2023-11-19T04:48:16;914.63;;;72.60;;
15958;SDS011;8078;47.822;9.402;2023-11-19T04:50:41;574.93;;;40.00;;
15958;SDS011;8078;47.822;9.402;2023-11-19T04:53:07;800.20;;;56.90;;
15958;SDS011;8078;47.822;9.402;2023-11-19T04:55:32;614.63;;;43.23;;
15958;SDS011;8078;47.822;9.402;2023-11-19T04:57:59;701.77;;;43.03;;
15958;SDS011;8078;47.822;9.402;2023-11-19T05:00:25;666.53;;;47.70;;
15958;SDS011;8078;47.822;9.402;2023-11-19T05:02:51;716.10;;;45.27;;
15958;SDS011;8078;47.822;9.402;2023-11-19T05:05:16;641.87;;;45.17;;
15958;SDS011;8078;47.822;9.402;2023-11-19T05:07:42;730.73;;;48.00;;
15958;SDS011;8078;47.822;9.402;2023-11-19T05:10:08;558.93;;;35.93;;
15958;SDS011;8078;47.822;9.402;2023-11-19T05:12:34;706.77;;;41.73;;
15958;SDS011;8078;47.822;9.402;2023-11-19T05:14:59;541.93;;;31.17;;
15958;SDS011;8078;47.822;9.402;2023-11-19T05:17:25;604.77;;;35.93;;
15958;SDS011;8078;47.822;9.402;2023-11-19T05:19:51;624.10;;;40.07;;
15958;SDS011;8078;47.822;9.402;2023-11-19T05:22:16;609.63;;;37.03;;
15958;SDS011;8078;47.822;9.402;2023-11-19T05:24:42;390.93;;;22.50;;
15958;SDS011;8078;47.822;9.402;2023-11-19T05:27:08;395.90;;;21.77;;
15958;SDS011;8078;47.822;9.402;2023-11-19T05:29:33;442.47;;;27.03;;
15958;SDS011;8078;47.822;9.402;2023-11-19T05:31:59;531.67;;;29.50;;
15958;SDS011;8078;47.822;9.402;2023-11-19T05:34:25;447.23;;;23.80;;
15958;SDS011;8078;47.822;9.402;2023-11-19T05:36:52;447.83;;;26.07;;
15958;SDS011;8078;47.822;9.402;2023-11-19T05:39:17;548.53;;;30.80;;
15958;SDS011;8078;47.822;9.402;2023-11-19T05:41:46;616.43;;;34.47;;
15958;SDS011;8078;47.822;9.402;2023-11-19T05:44:12;523.57;;;31.60;;
15958;SDS011;8078;47.822;9.402;2023-11-19T05:46:37;564.90;;;33.20;;
15958;SDS011;8078;47.822;9.402;2023-11-19T05:49:07;400.10;;;22.50;;
15958;SDS011;8078;47.822;9.402;2023-11-19T05:51:36;530.23;;;31.20;;
15958;SDS011;8078;47.822;9.402;2023-11-19T05:54:02;574.27;;;33.63;;
15958;SDS011;8078;47.822;9.402;2023-11-19T05:56:28;491.87;;;29.53;;
15958;SDS011;8078;47.822;9.402;2023-11-19T05:58:57;668.70;;;44.53;;
15958;SDS011;8078;47.822;9.402;2023-11-19T06:01:25;469.77;;;26.67;;
15958;SDS011;8078;47.822;9.402;2023-11-19T06:03:51;515.40;;;29.60;;
15958;SDS011;8078;47.822;9.402;2023-11-19T06:06:17;408.87;;;24.73;;
15958;SDS011;8078;47.822;9.402;2023-11-19T06:08:43;359.17;;;21.87;;
15958;SDS011;8078;47.822;9.402;2023-11-19T06:11:09;463.70;;;28.47;;
15958;SDS011;8078;47.822;9.402;2023-11-19T06:13:39;324.13;;;20.87;;
15958;SDS011;8078;47.822;9.402;2023-11-19T06:16:05;451.27;;;26.87;;
15958;SDS011;8078;47.822;9.402;2023-11-19T06:18:31;429.60;;;24.37;;
15958;SDS011;8078;47.822;9.402;2023-11-19T06:20:57;384.87;;;22.23;;
15958;SDS011;8078;47.822;9.402;2023-11-19T06:23:23;333.40;;;16.00;;
15958;SDS011;8078;47.822;9.402;2023-11-19T06:25:48;254.87;;;15.53;;
15958;SDS011;8078;47.822;9.402;2023-11-19T06:28:14;236.87;;;15.13;;
15958;SDS011;8078;47.822;9.402;2023-11-19T06:30:39;307.10;;;14.47;;
15958;SDS011;8078;47.822;9.402;2023-11-19T06:33:06;412.27;;;20.27;;
15958;SDS011;8078;47.822;9.402;2023-11-19T06:35:32;298.00;;;15.53;;
15958;SDS011;8078;47.822;9.402;2023-11-19T06:38:06;174.23;;;10.73;;
15958;SDS011;8078;47.822;9.402;2023-11-19T06:40:32;383.57;;;18.73;;
15958;SDS011;8078;47.822;9.402;2023-11-19T06:43:00;297.47;;;14.97;;
15958;SDS011;8078;47.822;9.402;2023-11-19T06:45:27;362.97;;;19.93;;
15958;SDS011;8078;47.822;9.402;2023-11-19T06:47:53;283.87;;;13.17;;
15958;SDS011;8078;47.822;9.402;2023-11-19T06:50:18;353.97;;;15.87;;
15958;SDS011;8078;47.822;9.402;2023-11-19T06:52:44;250.30;;;12.13;;
15958;SDS011;8078;47.822;9.402;2023-11-19T06:55:10;355.73;;;17.30;;
15958;SDS011;8078;47.822;9.402;2023-11-19T06:57:36;387.33;;;16.47;;
15958;SDS011;8078;47.822;9.402;2023-11-19T07:00:02;281.87;;;13.07;;
15958;SDS011;8078;47.822;9.402;2023-11-19T07:02:30;240.20;;;13.03;;
15958;SDS011;8078;47.822;9.402;2023-11-19T07:04:56;277.13;;;13.20;;
15958;SDS011;8078;47.822;9.402;2023-11-19T07:07:22;335.73;;;15.57;;
15958;SDS011;8078;47.822;9.402;2023-11-19T07:09:47;170.80;;;10.27;;
15958;SDS011;8078;47.822;9.402;2023-11-19T07:12:13;120.67;;;8.07;;
15958;SDS011;8078;47.822;9.402;2023-11-19T07:14:39;214.30;;;10.43;;
15958;SDS011;8078;47.822;9.402;2023-11-19T07:17:05;243.37;;;12.63;;
15958;SDS011;8078;47.822;9.402;2023-11-19T07:19:31;223.50;;;12.83;;
15958;SDS011;8078;47.822;9.402;2023-11-19T07:21:56;298.87;;;15.10;;
15958;SDS011;8078;47.822;9.402;2023-11-19T07:24:22;265.50;;;13.40;;
15958;SDS011;8078;47.822;9.402;2023-11-19T07:26:48;293.80;;;14.37;;
15958;SDS011;8078;47.822;9.402;2023-11-19T07:29:14;320.83;;;16.67;;
15958;SDS011;8078;47.822;9.402;2023-11-19T07:31:42;270.00;;;15.63;;
15958;SDS011;8078;47.822;9.402;2023-11-19T07:34:11;365.63;;;16.50;;
15958;SDS011;8078;47.822;9.402;2023-11-19T07:36:37;399.63;;;20.87;;
15958;SDS011;8078;47.822;9.402;2023-11-19T07:39:03;348.93;;;16.73;;
15958;SDS011;8078;47.822;9.402;2023-11-19T07:41:30;404.63;;;19.47;;
15958;SDS011;8078;47.822;9.402;2023-11-19T07:43:56;299.97;;;16.70;;
15958;SDS011;8078;47.822;9.402;2023-11-19T07:46:21;425.57;;;17.50;;
15958;SDS011;8078;47.822;9.402;2023-11-19T07:48:47;299.97;;;15.10;;
15958;SDS011;8078;47.822;9.402;2023-11-19T07:51:13;308.23;;;14.20;;
15958;SDS011;8078;47.822;9.402;2023-11-19T07:53:39;227.97;;;11.43;;
15958;SDS011;8078;47.822;9.402;2023-11-19T07:56:06;358.30;;;16.37;;
15958;SDS011;8078;47.822;9.402;2023-11-19T07:58:32;366.73;;;18.00;;
15958;SDS011;8078;47.822;9.402;2023-11-19T08:00:58;419.47;;;20.53;;
15958;SDS011;8078;47.822;9.402;2023-11-19T08:03:23;501.23;;;24.90;;
15958;SDS011;8078;47.822;9.402;2023-11-19T08:05:49;402.97;;;19.23;;
15958;SDS011;8078;47.822;9.402;2023-11-19T08:08:14;396.30;;;21.90;;
15958;SDS011;8078;47.822;9.402;2023-11-19T08:10:40;437.57;;;20.73;;
15958;SDS011;8078;47.822;9.402;2023-11-19T08:13:06;322.83;;;18.03;;
15958;SDS011;8078;47.822;9.402;2023-11-19T08:15:32;361.23;;;19.87;;
15958;SDS011;8078;47.822;9.402;2023-11-19T08:17:58;557.77;;;29.60;;
15958;SDS011;8078;47.822;9.402;2023-11-19T08:20:24;620.67;;;34.20;;
15958;SDS011;8078;47.822;9.402;2023-11-19T08:22:49;383.70;;;18.50;;
15958;SDS011;8078;47.822;9.402;2023-11-19T08:25:15;539.20;;;29.93;;
15958;SDS011;8078;47.822;9.402;2023-11-19T08:27:40;524.60;;;27.17;;
15958;SDS011;8078;47.822;9.402;2023-11-19T08:30:06;551.07;;;30.33;;
15958;SDS011;8078;47.822;9.402;2023-11-19T08:32:32;561.23;;;32.90;;
15958;SDS011;8078;47.822;9.402;2023-11-19T08:34:59;481.97;;;24.43;;
15958;SDS011;8078;47.822;9.402;2023-11-19T08:37:25;417.90;;;21.00;;
15958;SDS011;8078;47.822;9.402;2023-11-19T08:39:50;543.03;;;30.47;;
15958;SDS011;8078;47.822;9.402;2023-11-19T08:42:16;526.70;;;28.07;;
15958;SDS011;8078;47.822;9.402;2023-11-19T08:44:42;565.03;;;30.90;;
15958;SDS011;8078;47.822;9.402;2023-11-19T08:47:14;387.10;;;18.17;;
15958;SDS011;8078;47.822;9.402;2023-11-19T08:49:41;434.70;;;22.77;;
15958;SDS011;8078;47.822;9.402;2023-11-19T08:52:06;455.97;;;20.90;;
15958;SDS011;8078;47.822;9.402;2023-11-19T08:54:35;468.90;;;27.23;;
15958;SDS011;8078;47.822;9.402;2023-11-19T08:57:01;360.93;;;15.03;;
15958;SDS011;8078;47.822;9.402;2023-11-19T08:59:28;414.17;;;20.70;;
15958;SDS011;8078;47.822;9.402;2023-11-19T09:01:54;431.87;;;19.60;;
15958;SDS011;8078;47.822;9.402;2023-11-19T09:04:19;307.23;;;13.80;;
15958;SDS011;8078;47.822;9.402;2023-11-19T09:06:47;338.90;;;15.77;;
15958;SDS011;8078;47.822;9.402;2023-11-19T09:09:13;375.20;;;17.83;;
15958;SDS011;8078;47.822;9.402;2023-11-19T09:11:39;285.37;;;15.27;;
15958;SDS011;8078;47.822;9.402;2023-11-19T09:14:04;352.10;;;15.67;;
15958;SDS011;8078;47.822;9.402;2023-11-19T09:16:30;451.07;;;21.27;;
15958;SDS011;8078;47.822;9.402;2023-11-19T09:18:56;270.87;;;11.83;;
15958;SDS011;8078;47.822;9.402;2023-11-19T09:21:23;343.77;;;12.83;;
15958;SDS011;8078;47.822;9.402;2023-11-19T09:23:48;277.23;;;12.43;;
15958;SDS011;8078;47.822;9.402;2023-11-19T09:26:14;394.77;;;18.23;;
15958;SDS011;8078;47.822;9.402;2023-11-19T09:28:40;300.57;;;14.07;;
15958;SDS011;8078;47.822;9.402;2023-11-19T09:31:18;172.60;;;9.33;;
15958;SDS011;8078;47.822;9.402;2023-11-19T09:33:44;411.10;;;20.07;;
15958;SDS011;8078;47.822;9.402;2023-11-19T09:36:11;313.20;;;14.70;;
15958;SDS011;8078;47.822;9.402;2023-11-19T09:38:39;408.10;;;19.73;;
15958;SDS011;8078;47.822;9.402;2023-11-19T09:41:05;227.13;;;10.57;;
15958;SDS011;8078;47.822;9.402;2023-11-19T09:43:34;35.47;;;5.40;;
15958;SDS011;8078;47.822;9.402;2023-11-19T09:46:05;13.70;;;1.50;;
15958;SDS011;8078;47.822;9.402;2023-11-19T09:48:35;0.10;;;0.10;;
15958;SDS011;8078;47.822;9.402;2023-11-19T09:51:02;0.57;;;0.57;;
15958;SDS011;8078;47.822;9.402;2023-11-19T09:53:29;16.03;;;2.53;;
15958;SDS011;8078;47.822;9.402;2023-11-19T09:55:55;45.53;;;4.90;;
15958;SDS011;8078;47.822;9.402;2023-11-19T09:58:21;3.40;;;2.37;;
15958;SDS011;8078;47.822;9.402;2023-11-19T10:00:47;9.80;;;4.90;;
15958;SDS011;8078;47.822;9.402;2023-11-19T10:03:14;10.67;;;4.50;;
15958;SDS011;8078;47.822;9.402;2023-11-19T10:05:40;55.57;;;3.23;;
15958;SDS011;8078;47.822;9.402;2023-11-19T10:08:06;0.20;;;0.20;;
15958;SDS011;8078;47.822;9.402;2023-11-19T10:10:33;1.93;;;1.60;;
15958;SDS011;8078;47.822;9.402;2023-11-19T10:12:59;4.27;;;2.10;;
15958;SDS011;8078;47.822;9.402;2023-11-19T10:15:25;2.23;;;1.57;;
15958;SDS011;8078;47.822;9.402;2023-11-19T10:17:51;3.20;;;1.90;;
15958;SDS011;8078;47.822;9.402;2023-11-19T10:20:21;38.13;;;1.97;;
15958;SDS011;8078;47.822;9.402;2023-11-19T10:22:46;1.50;;;1.07;;
15958;SDS011;8078;47.822;9.402;2023-11-19T10:25:25;0.77;;;0.70;;
15958;SDS011;8078;47.822;9.402;2023-11-19T10:27:52;44.00;;;3.10;;
15958;SDS011;8078;47.822;9.402;2023-11-19T10:30:22;57.23;;;7.43;;
15958;SDS011;8078;47.822;9.402;2023-11-19T10:33:04;35.67;;;1.43;;
15958;SDS011;8078;47.822;9.402;2023-11-19T10:38:18;1.07;;;1.07;;
15958;SDS011;8078;47.822;9.402;2023-11-19T10:40:44;0.80;;;0.80;;
15958;SDS011;8078;47.822;9.402;2023-11-19T10:43:10;0.87;;;0.87;;
15958;SDS011;8078;47.822;9.402;2023-11-19T10:45:36;23.53;;;3.17;;
15958;SDS011;8078;47.822;9.402;2023-11-19T10:48:03;23.80;;;2.40;;
15958;SDS011;8078;47.822;9.402;2023-11-19T10:50:31;18.73;;;3.73;;
15958;SDS011;8078;47.822;9.402;2023-11-19T10:53:04;2.47;;;1.37;;
15958;SDS011;8078;47.822;9.402;2023-11-19T10:55:31;53.20;;;8.67;;
15958;SDS011;8078;47.822;9.402;2023-11-19T10:58:03;8.70;;;4.17;;
15958;SDS011;8078;47.822;9.402;2023-11-19T11:00:34;5.93;;;3.03;;
15958;SDS011;8078;47.822;9.402;2023-11-19T11:03:09;52.60;;;7.47;;
15958;SDS011;8078;47.822;9.402;2023-11-19T11:05:40;28.33;;;5.17;;
15958;SDS011;8078;47.822;9.402;2023-11-19T11:08:06;39.77;;;1.67;;
15958;SDS011;8078;47.822;9.402;2023-11-19T11:10:33;20.03;;;5.10;;
15958;SDS011;8078;47.822;9.402;2023-11-19T11:13:04;0.50;;;0.50;;
15958;SDS011;8078;47.822;9.402;2023-11-19T11:15:31;0.20;;;0.20;;
15958;SDS011;8078;47.822;9.402;2023-11-19T11:18:00;38.93;;;7.37;;
15958;SDS011;8078;47.822;9.402;2023-11-19T11:20:27;12.30;;;5.23;;
15958;SDS011;8078;47.822;9.402;2023-11-19T11:29:10;35.07;;;2.37;;
15958;SDS011;8078;47.822;9.402;2023-11-19T11:31:58;3.47;;;2.77;;
15958;SDS011;8078;47.822;9.402;2023-11-19T11:34:47;4.53;;;2.03;;
15958;SDS011;8078;47.822;9.402;2023-11-19T11:40:17;39.13;;;2.60;;
15958;SDS011;8078;47.822;9.402;2023-11-19T11:42:48;67.23;;;3.33;;
15958;SDS011;8078;47.822;9.402;2023-11-19T11:45:15;57.57;;;7.80;;
15958;SDS011;8078;47.822;9.402;2023-11-19T11:50:10;54.23;;;3.10;;
15958;SDS011;8078;47.822;9.402;2023-11-19T11:55:29;2.23;;;2.03;;
15958;SDS011;8078;47.822;9.402;2023-11-19T12:00:58;24.83;;;3.87;;
15958;SDS011;8078;47.822;9.402;2023-11-19T12:03:27;2.47;;;2.27;;
15958;SDS011;8078;47.822;9.402;2023-11-19T12:05:54;23.60;;;2.03;;
15958;SDS011;8078;47.822;9.402;2023-11-19T12:08:23;14.13;;;5.97;;
15958;SDS011;8078;47.822;9.402;2023-11-19T12:10:51;1.13;;;1.13;;
15958;SDS011;8078;47.822;9.402;2023-11-19T12:13:23;54.47;;;6.30;;
15958;SDS011;8078;47.822;9.402;2023-11-19T12:18:24;4.40;;;2.90;;
15958;SDS011;8078;47.822;9.402;2023-11-19T12:20:52;1.73;;;1.63;;
15958;SDS011;8078;47.822;9.402;2023-11-19T12:23:18;27.27;;;4.13;;
15958;SDS011;8078;47.822;9.402;2023-11-19T12:25:44;38.80;;;3.00;;
15958;SDS011;8078;47.822;9.402;2023-11-19T12:28:14;0.67;;;0.67;;
15958;SDS011;8078;47.822;9.402;2023-11-19T12:30:42;0.30;;;0.30;;
15958;SDS011;8078;47.822;9.402;2023-11-19T12:33:09;14.33;;;2.27;;
15958;SDS011;8078;47.822;9.402;2023-11-19T12:35:45;29.67;;;3.90;;
15958;SDS011;8078;47.822;9.402;2023-11-19T12:38:21;50.77;;;6.93;;
15958;SDS011;8078;47.822;9.402;2023-11-19T12:41:03;20.83;;;2.43;;
15958;SDS011;8078;47.822;9.402;2023-11-19T12:43:29;1.90;;;1.80;;
15958;SDS011;8078;47.822;9.402;2023-11-19T12:45:55;10.73;;;3.00;;
15958;SDS011;8078;47.822;9.402;2023-11-19T12:48:21;1.20;;;0.93;;
15958;SDS011;8078;47.822;9.402;2023-11-19T12:50:57;0.30;;;0.30;;
15958;SDS011;8078;47.822;9.402;2023-11-19T12:53:25;0.60;;;0.60;;
15958;SDS011;8078;47.822;9.402;2023-11-19T12:55:52;0.60;;;0.60;;
15958;SDS011;8078;47.822;9.402;2023-11-19T12:58:28;0.33;;;0.33;;
15958;SDS011;8078;47.822;9.402;2023-11-19T13:01:05;0.50;;;0.50;;
15958;SDS011;8078;47.822;9.402;2023-11-19T13:03:32;0.97;;;0.97;;
15958;SDS011;8078;47.822;9.402;2023-11-19T13:06:02;1.10;;;1.10;;
15958;SDS011;8078;47.822;9.402;2023-11-19T13:08:36;1.23;;;1.17;;
15958;SDS011;8078;47.822;9.402;2023-11-19T13:11:06;17.07;;;1.47;;
15958;SDS011;8078;47.822;9.402;2023-11-19T13:16:19;27.77;;;3.43;;
15958;SDS011;8078;47.822;9.402;2023-11-19T13:18:44;2.80;;;0.70;;
15958;SDS011;8078;47.822;9.402;2023-11-19T13:21:10;0.50;;;0.50;;
15958;SDS011;8078;47.822;9.402;2023-11-19T13:23:35;0.77;;;0.77;;
15958;SDS011;8078;47.822;9.402;2023-11-19T13:26:01;19.27;;;2.97;;
15958;SDS011;8078;47.822;9.402;2023-11-19T13:28:28;0.40;;;0.40;;
15958;SDS011;8078;47.822;9.402;2023-11-19T13:30:54;0.50;;;0.50;;
15958;SDS011;8078;47.822;9.402;2023-11-19T13:33:20;2.40;;;1.03;;
15958;SDS011;8078;47.822;9.402;2023-11-19T13:35:45;49.47;;;2.03;;
15958;SDS011;8078;47.822;9.402;2023-11-19T13:38:11;0.67;;;0.67;;
15958;SDS011;8078;47.822;9.402;2023-11-19T13:40:36;47.60;;;7.20;;
15958;SDS011;8078;47.822;9.402;2023-11-19T13:43:02;0.30;;;0.30;;
15958;SDS011;8078;47.822;9.402;2023-11-19T13:45:27;37.47;;;2.87;;
15958;SDS011;8078;47.822;9.402;2023-11-19T13:47:53;57.57;;;3.77;;
15958;SDS011;8078;47.822;9.402;2023-11-19T13:50:18;23.77;;;3.63;;
15958;SDS011;8078;47.822;9.402;2023-11-19T13:52:45;27.73;;;2.17;;
15958;SDS011;8078;47.822;9.402;2023-11-19T13:55:12;14.67;;;3.13;;
15958;SDS011;8078;47.822;9.402;2023-11-19T13:57:39;2.33;;;0.97;;
15958;SDS011;8078;47.822;9.402;2023-11-19T14:00:06;22.17;;;4.47;;
15958;SDS011;8078;47.822;9.402;2023-11-19T14:02:41;32.87;;;2.63;;
15958;SDS011;8078;47.822;9.402;2023-11-19T14:05:07;30.77;;;5.23;;
15958;SDS011;8078;47.822;9.402;2023-11-19T14:07:33;25.27;;;9.33;;
15958;SDS011;8078;47.822;9.402;2023-11-19T14:09:59;10.67;;;2.33;;
15958;SDS011;8078;47.822;9.402;2023-11-19T14:12:25;4.40;;;3.53;;
15958;SDS011;8078;47.822;9.402;2023-11-19T14:14:50;34.47;;;1.37;;
15958;SDS011;8078;47.822;9.402;2023-11-19T14:17:16;78.10;;;6.80;;
15958;SDS011;8078;47.822;9.402;2023-11-19T14:19:42;3.10;;;2.90;;
15958;SDS011;8078;47.822;9.402;2023-11-19T14:22:08;22.53;;;3.50;;
15958;SDS011;8078;47.822;9.402;2023-11-19T14:24:33;1.23;;;1.23;;
15958;SDS011;8078;47.822;9.402;2023-11-19T14:26:59;0.97;;;0.97;;
15958;SDS011;8078;47.822;9.402;2023-11-19T14:29:26;71.60;;;6.37;;
15958;SDS011;8078;47.822;9.402;2023-11-19T14:31:52;1.40;;;0.80;;
15958;SDS011;8078;47.822;9.402;2023-11-19T14:34:19;12.20;;;3.23;;
15958;SDS011;8078;47.822;9.402;2023-11-19T14:36:45;1.07;;;1.07;;
15958;SDS011;8078;47.822;9.402;2023-11-19T14:39:10;0.70;;;0.60;;
15958;SDS011;8078;47.822;9.402;2023-11-19T14:41:36;0.83;;;0.83;;
15958;SDS011;8078;47.822;9.402;2023-11-19T14:44:02;0.40;;;0.40;;
15958;SDS011;8078;47.822;9.402;2023-11-19T14:46:28;0.80;;;0.80;;
15958;SDS011;8078;47.822;9.402;2023-11-19T14:48:54;0.50;;;0.50;;
15958;SDS011;8078;47.822;9.402;2023-11-19T14:51:20;0.40;;;0.40;;
15958;SDS011;8078;47.822;9.402;2023-11-19T14:53:46;0.47;;;0.47;;
15958;SDS011;8078;47.822;9.402;2023-11-19T14:56:12;1.13;;;1.13;;
15958;SDS011;8078;47.822;9.402;2023-11-19T14:58:39;0.50;;;0.50;;